Time;durP1;ratioP1;P1;durP2;ratioP2;P2;SDS_P1;SDS_P2;PMS_P1;PMS_P2;Temp;Humidity;BMP_temperature;BMP_pressure;BME280_temperature;BME280_humidity;BME280_pressure;Samples;Min_cycle;Max_cycle;Signal;HPM_P1;HPM_P2
2023/09/22 00:01:55;;;;;;;1.63;0.80;;;;;;;;;;6184812;23;20068;-72
2023/09/22 00:04:21;;;;;;;2.78;0.85;;;;;;;;;;6185172;23;20084;-71
2023/09/22 00:06:47;;;;;;;1.85;0.90;;;;;;;;;;6184770;23;20072;-71
2023/09/22 00:09:14;;;;;;;4.85;0.90;;;;;;;;;;6158397;23;20143;-71
2023/09/22 00:11:40;;;;;;;2.72;0.90;;;;;;;;;;6184749;23;20080;-72
2023/09/22 00:14:08;;;;;;;2.42;0.85;;;;;;;;;;6184299;23;20080;-71
2023/09/22 00:16:35;;;;;;;2.60;0.88;;;;;;;;;;6184742;23;20144;-71
2023/09/22 00:19:05;;;;;;;2.75;0.85;;;;;;;;;;6184708;23;20100;-71
2023/09/22 00:21:34;;;;;;;4.00;1.00;;;;;;;;;;6184617;23;20076;-71
2023/09/22 00:24:00;;;;;;;2.35;1.13;;;;;;;;;;6184508;23;20354;-71
2023/09/22 00:26:27;;;;;;;2.40;0.98;;;;;;;;;;6184675;23;20084;-72
2023/09/22 00:28:53;;;;;;;2.85;1.00;;;;;;;;;;6184168;23;20080;-71
2023/09/22 00:31:19;;;;;;;3.65;1.10;;;;;;;;;;6184343;23;20088;-71
2023/09/22 00:33:46;;;;;;;4.40;1.10;;;;;;;;;;6184631;23;20396;-71
2023/09/22 00:36:14;;;;;;;3.13;1.10;;;;;;;;;;6184585;23;20135;-71
2023/09/22 00:38:41;;;;;;;3.05;1.00;;;;;;;;;;6184513;23;20072;-72
2023/09/22 00:41:07;;;;;;;3.03;1.08;;;;;;;;;;6184536;23;20119;-72
2023/09/22 00:43:34;;;;;;;5.68;1.30;;;;;;;;;;6183844;23;20080;-71
2023/09/22 00:46:00;;;;;;;4.68;1.00;;;;;;;;;;6184530;23;20068;-71
2023/09/22 00:48:28;;;;;;;4.30;1.33;;;;;;;;;;6184677;23;20096;-71
2023/09/22 00:50:55;;;;;;;2.42;0.95;;;;;;;;;;6157947;23;20092;-72
2023/09/22 00:53:23;;;;;;;3.90;0.98;;;;;;;;;;6184702;23;20080;-71
2023/09/22 00:55:51;;;;;;;3.17;1.40;;;;;;;;;;6184651;23;20072;-71
2023/09/22 00:58:18;;;;;;;5.63;1.50;;;;;;;;;;6157862;23;20072;-71
2023/09/22 01:00:49;;;;;;;2.33;1.10;;;;;;;;;;6158287;23;20080;-71
2023/09/22 01:03:16;;;;;;;3.95;1.17;;;;;;;;;;6185143;23;20080;-71
2023/09/22 01:05:43;;;;;;;6.00;1.27;;;;;;;;;;6186450;23;20072;-71
2023/09/22 01:08:10;;;;;;;4.93;1.05;;;;;;;;;;6186201;23;20084;-71
2023/09/22 01:10:43;;;;;;;3.72;1.20;;;;;;;;;;6186314;23;20084;-71
2023/09/22 01:13:09;;;;;;;6.70;1.55;;;;;;;;;;6185953;23;20076;-71
2023/09/22 01:15:37;;;;;;;4.25;1.30;;;;;;;;;;6160141;23;20540;-71
2023/09/22 01:18:06;;;;;;;9.60;1.52;;;;;;;;;;6186466;23;20080;-71
2023/09/22 01:20:33;;;;;;;5.50;1.23;;;;;;;;;;6186076;23;20432;-71
2023/09/22 01:22:59;;;;;;;6.35;1.38;;;;;;;;;;6186538;23;20083;-71
2023/09/22 01:25:26;;;;;;;6.50;1.35;;;;;;;;;;6186290;23;20092;-70
2023/09/22 01:27:52;;;;;;;5.88;1.20;;;;;;;;;;6185824;23;20405;-71
2023/09/22 01:30:18;;;;;;;6.55;1.45;;;;;;;;;;6186233;23;20092;-71
2023/09/22 01:32:45;;;;;;;4.70;1.30;;;;;;;;;;6186073;23;20080;-71
2023/09/22 01:35:11;;;;;;;5.07;1.20;;;;;;;;;;6159989;23;20487;-71
2023/09/22 01:37:39;;;;;;;5.30;1.40;;;;;;;;;;6186390;23;20068;-71
2023/09/22 01:40:08;;;;;;;5.13;1.20;;;;;;;;;;6186033;23;20511;-71
2023/09/22 01:42:34;;;;;;;6.03;1.33;;;;;;;;;;6185633;23;20069;-71
2023/09/22 01:45:02;;;;;;;3.67;1.35;;;;;;;;;;6186211;23;20064;-72
2023/09/22 01:47:28;;;;;;;4.13;1.15;;;;;;;;;;6186053;23;20084;-71
2023/09/22 01:49:55;;;;;;;6.28;1.60;;;;;;;;;;6185825;23;20076;-71
2023/09/22 01:52:21;;;;;;;5.15;1.23;;;;;;;;;;6159687;23;20096;-71
2023/09/22 01:54:47;;;;;;;7.18;1.30;;;;;;;;;;6185985;23;20072;-71
2023/09/22 01:57:16;;;;;;;4.82;1.38;;;;;;;;;;6159206;23;20076;-71
2023/09/22 01:59:43;;;;;;;4.40;1.17;;;;;;;;;;6185896;23;20076;-71
2023/09/22 02:02:09;;;;;;;3.45;1.50;;;;;;;;;;6159524;23;20385;-71
2023/09/22 02:04:36;;;;;;;4.40;1.25;;;;;;;;;;6185925;23;20092;-71
2023/09/22 02:07:03;;;;;;;3.20;1.08;;;;;;;;;;6186133;23;20076;-71
2023/09/22 02:09:29;;;;;;;5.45;1.10;;;;;;;;;;6185307;23;20072;-71
2023/09/22 02:11:55;;;;;;;5.18;1.35;;;;;;;;;;6186057;23;20067;-70
2023/09/22 02:14:22;;;;;;;6.05;1.30;;;;;;;;;;6185789;23;20076;-71
2023/09/22 02:16:49;;;;;;;3.30;1.17;;;;;;;;;;6185829;23;20076;-71
2023/09/22 02:19:15;;;;;;;3.75;1.20;;;;;;;;;;6185913;23;20075;-71
2023/09/22 02:21:42;;;;;;;3.45;1.45;;;;;;;;;;6185895;23;20516;-71
2023/09/22 02:24:08;;;;;;;8.10;1.63;;;;;;;;;;6185246;23;20087;-71
2023/09/22 02:26:36;;;;;;;5.13;1.13;;;;;;;;;;6185483;23;20017;-71
2023/09/22 02:29:02;;;;;;;9.00;1.40;;;;;;;;;;6185799;23;20145;-71
2023/09/22 02:31:28;;;;;;;6.97;1.58;;;;;;;;;;6185420;23;20017;-71
2023/09/22 02:33:55;;;;;;;5.60;1.58;;;;;;;;;;6185596;23;20503;-71
2023/09/22 02:36:21;;;;;;;5.88;1.55;;;;;;;;;;6185663;23;20060;-71
2023/09/22 02:38:47;;;;;;;4.90;1.20;;;;;;;;;;6185283;23;20079;-72
2023/09/22 02:41:15;;;;;;;5.47;1.23;;;;;;;;;;6185639;23;20064;-71
2023/09/22 02:43:41;;;;;;;6.35;1.60;;;;;;;;;;6185343;23;20085;-71
2023/09/22 02:46:08;;;;;;;6.03;1.30;;;;;;;;;;6159044;23;20084;-71
2023/09/22 02:48:34;;;;;;;9.88;1.50;;;;;;;;;;6185513;23;20076;-71
2023/09/22 02:51:00;;;;;;;5.50;1.60;;;;;;;;;;6158912;23;20087;-70
2023/09/22 02:53:27;;;;;;;3.58;1.13;;;;;;;;;;6185069;23;20396;-71
2023/09/22 02:55:53;;;;;;;6.60;1.52;;;;;;;;;;6185257;23;20511;-71
2023/09/22 02:58:19;;;;;;;6.85;1.50;;;;;;;;;;6185470;23;20076;-71
2023/09/22 03:00:46;;;;;;;6.55;1.75;;;;;;;;;;6185308;23;20063;-71
2023/09/22 03:03:13;;;;;;;9.68;1.58;;;;;;;;;;6185256;23;20076;-71
2023/09/22 03:05:39;;;;;;;5.78;1.27;;;;;;;;;;6185340;23;20535;-71
2023/09/22 03:08:06;;;;;;;5.03;2.13;;;;;;;;;;6184782;23;20080;-71
2023/09/22 03:10:32;;;;;;;2.83;1.27;;;;;;;;;;6185017;23;20095;-71
2023/09/22 03:12:59;;;;;;;6.22;1.40;;;;;;;;;;6185332;23;20076;-71
2023/09/22 03:15:25;;;;;;;7.00;1.60;;;;;;;;;;6185189;23;20076;-71
2023/09/22 03:17:52;;;;;;;6.32;1.50;;;;;;;;;;6185133;23;20526;-71
2023/09/22 03:20:18;;;;;;;5.72;1.75;;;;;;;;;;6185270;23;20103;-71
2023/09/22 03:22:45;;;;;;;7.43;1.52;;;;;;;;;;6184764;23;20076;-71
2023/09/22 03:25:12;;;;;;;7.55;1.55;;;;;;;;;;6184649;23;20430;-70
2023/09/22 03:27:39;;;;;;;3.78;1.30;;;;;;;;;;6185231;23;20072;-71
2023/09/22 03:30:06;;;;;;;5.38;1.40;;;;;;;;;;6184831;23;20080;-71
2023/09/22 03:32:33;;;;;;;3.97;1.27;;;;;;;;;;6184957;23;20080;-71
2023/09/22 03:35:00;;;;;;;6.22;1.27;;;;;;;;;;6185062;23;20068;-70
2023/09/22 03:37:28;;;;;;;5.50;1.30;;;;;;;;;;6158510;23;20072;-71
2023/09/22 03:39:56;;;;;;;7.10;1.63;;;;;;;;;;6184822;23;20084;-71
2023/09/22 03:42:23;;;;;;;5.97;1.33;;;;;;;;;;6185010;23;20068;-71
2023/09/22 03:44:49;;;;;;;6.85;1.63;;;;;;;;;;6184960;23;20072;-71
2023/09/22 03:47:16;;;;;;;4.28;1.00;;;;;;;;;;6184854;23;20080;-70
2023/09/22 03:49:42;;;;;;;3.70;1.17;;;;;;;;;;6184811;23;20430;-71
2023/09/22 03:52:08;;;;;;;5.07;1.27;;;;;;;;;;6184483;23;20072;-71
2023/09/22 03:54:36;;;;;;;4.53;1.50;;;;;;;;;;6184787;23;20543;-71
2023/09/22 03:57:02;;;;;;;6.72;1.40;;;;;;;;;;6184842;23;20067;-71
2023/09/22 03:59:29;;;;;;;8.80;1.45;;;;;;;;;;6184724;23;20397;-71
2023/09/22 04:01:55;;;;;;;6.20;1.58;;;;;;;;;;6184627;23;20076;-70
2023/09/22 04:04:22;;;;;;;4.65;1.50;;;;;;;;;;6184876;23;20080;-71
2023/09/22 04:06:48;;;;;;;8.07;2.22;;;;;;;;;;6184317;23;20072;-71
2023/09/22 04:09:15;;;;;;;5.68;1.63;;;;;;;;;;6184575;23;20068;-70
2023/09/22 04:11:41;;;;;;;5.10;1.60;;;;;;;;;;6184728;23;20369;-71
2023/09/22 04:14:08;;;;;;;11.13;1.50;;;;;;;;;;6158388;23;20076;-71
2023/09/22 04:16:34;;;;;;;7.05;1.65;;;;;;;;;;6185008;23;20079;-71
2023/09/22 04:19:00;;;;;;;11.13;1.67;;;;;;;;;;6184763;23;20076;-71
2023/09/22 04:21:27;;;;;;;6.95;1.70;;;;;;;;;;6184199;23;20084;-71
2023/09/22 04:24:00;;;;;;;8.30;1.50;;;;;;;;;;6184474;23;20083;-70
2023/09/22 04:26:29;;;;;;;5.28;1.42;;;;;;;;;;6158522;23;20076;-70
2023/09/22 04:28:59;;;;;;;8.60;1.58;;;;;;;;;;6184740;23;20064;-71
2023/09/22 04:31:28;;;;;;;9.20;1.45;;;;;;;;;;6184471;23;20097;-71
2023/09/22 04:33:54;;;;;;;5.97;1.40;;;;;;;;;;6184719;23;20076;-71
2023/09/22 04:36:24;;;;;;;5.10;1.70;;;;;;;;;;6184086;23;20511;-71
2023/09/22 04:38:50;;;;;;;5.38;1.60;;;;;;;;;;6158268;23;20128;-71
2023/09/22 04:41:20;;;;;;;8.02;1.42;;;;;;;;;;6184535;23;20076;-71
2023/09/22 04:43:46;;;;;;;3.63;1.40;;;;;;;;;;6184609;23;20065;-71
2023/09/22 04:46:13;;;;;;;9.05;1.77;;;;;;;;;;6184440;23;20076;-71
2023/09/22 04:48:40;;;;;;;7.97;1.55;;;;;;;;;;6184533;23;20068;-70
2023/09/22 04:51:06;;;;;;;10.07;2.05;;;;;;;;;;6184124;23;20084;-71
2023/09/22 04:53:33;;;;;;;4.90;1.30;;;;;;;;;;6184368;23;20076;-71
2023/09/22 04:56:03;;;;;;;7.10;1.40;;;;;;;;;;6184591;23;20101;-71
2023/09/22 04:58:30;;;;;;;5.90;1.67;;;;;;;;;;6184806;23;20077;-70
2023/09/22 05:00:57;;;;;;;7.00;1.27;;;;;;;;;;6158405;23;20076;-71
2023/09/22 05:03:28;;;;;;;8.73;1.60;;;;;;;;;;6183985;23;20064;-70
2023/09/22 05:05:54;;;;;;;7.33;1.80;;;;;;;;;;6184448;23;20131;-71
2023/09/22 05:08:21;;;;;;;4.55;1.48;;;;;;;;;;6184476;23;20288;-71
2023/09/22 05:10:50;;;;;;;8.98;1.90;;;;;;;;;;6184275;23;20120;-70
2023/09/22 05:13:17;;;;;;;8.77;2.25;;;;;;;;;;6184460;23;20084;-70
2023/09/22 05:15:43;;;;;;;12.18;1.42;;;;;;;;;;6184630;23;20087;-70
2023/09/22 05:18:13;;;;;;;10.15;1.70;;;;;;;;;;6183850;23;20427;-70
2023/09/22 05:20:43;;;;;;;14.37;1.77;;;;;;;;;;6184387;23;20081;-71
2023/09/22 05:23:09;;;;;;;4.10;1.50;;;;;;;;;;6184278;23;20351;-70
2023/09/22 05:25:40;;;;;;;4.57;1.50;;;;;;;;;;6184563;23;20507;-70
2023/09/22 05:28:08;;;;;;;5.80;1.88;;;;;;;;;;6184285;23;20076;-71
2023/09/22 05:30:38;;;;;;;6.43;1.70;;;;;;;;;;6184005;23;20405;-71
2023/09/22 05:33:07;;;;;;;8.68;1.60;;;;;;;;;;6183936;23;20072;-71
2023/09/22 05:35:37;;;;;;;4.07;1.52;;;;;;;;;;6184174;23;20085;-70
2023/09/22 05:38:04;;;;;;;10.75;2.00;;;;;;;;;;6184272;23;20064;-70
2023/09/22 05:40:34;;;;;;;13.05;1.75;;;;;;;;;;6157805;23;20092;-71
2023/09/22 05:43:05;;;;;;;7.50;1.80;;;;;;;;;;6184304;23;20068;-71
2023/09/22 05:45:31;;;;;;;5.07;1.65;;;;;;;;;;6184409;23;20092;-71
2023/09/22 05:47:58;;;;;;;9.95;1.73;;;;;;;;;;6183845;23;20072;-70
2023/09/22 05:50:24;;;;;;;7.43;1.83;;;;;;;;;;6185455;23;20092;-71
2023/09/22 05:52:51;;;;;;;3.38;1.55;;;;;;;;;;6159511;23;20068;-71
2023/09/22 05:55:19;;;;;;;8.18;1.70;;;;;;;;;;6186022;23;20080;-70
2023/09/22 05:57:46;;;;;;;8.18;1.67;;;;;;;;;;6185953;23;20068;-70
2023/09/22 06:00:16;;;;;;;8.05;1.90;;;;;;;;;;6185668;23;20391;-71
2023/09/22 06:02:51;;;;;;;8.18;2.03;;;;;;;;;;6185453;23;20076;-71
2023/09/22 06:05:18;;;;;;;8.35;1.67;;;;;;;;;;6185892;23;20084;-71
2023/09/22 06:07:45;;;;;;;5.90;1.73;;;;;;;;;;6159712;23;20069;-70
2023/09/22 06:10:12;;;;;;;7.03;1.60;;;;;;;;;;6185380;23;20083;-70
2023/09/22 06:12:39;;;;;;;4.93;1.38;;;;;;;;;;6185795;23;20076;-71
2023/09/22 06:15:07;;;;;;;5.57;1.63;;;;;;;;;;6159558;23;20072;-71
2023/09/22 06:17:34;;;;;;;5.18;1.48;;;;;;;;;;6185272;23;20075;-71
2023/09/22 06:20:08;;;;;;;6.47;2.03;;;;;;;;;;6180356;23;20315;-72
2023/09/22 06:22:35;;;;;;;12.73;2.05;;;;;;;;;;6185132;23;20076;-73
2023/09/22 06:25:01;;;;;;;7.80;1.80;;;;;;;;;;6185361;23;20096;-72
2023/09/22 06:27:27;;;;;;;8.43;2.03;;;;;;;;;;6185121;23;20072;-72
2023/09/22 06:29:54;;;;;;;11.02;2.90;;;;;;;;;;6184519;23;20567;-72
2023/09/22 06:32:20;;;;;;;8.63;2.58;;;;;;;;;;6184547;23;20076;-73
2023/09/22 06:34:46;;;;;;;5.68;2.28;;;;;;;;;;6184630;23;20088;-73
2023/09/22 06:37:13;;;;;;;5.38;2.35;;;;;;;;;;6183694;23;20072;-72
2023/09/22 06:39:40;;;;;;;7.50;2.53;;;;;;;;;;6183899;23;20088;-72
2023/09/22 06:42:06;;;;;;;7.20;2.58;;;;;;;;;;6185027;23;20072;-72
2023/09/22 06:44:34;;;;;;;7.65;2.70;;;;;;;;;;6184264;23;20080;-72
2023/09/22 06:47:02;;;;;;;8.48;3.30;;;;;;;;;;6184620;23;20080;-72
2023/09/22 06:49:28;;;;;;;8.32;2.63;;;;;;;;;;6158591;23;20083;-72
2023/09/22 06:51:55;;;;;;;8.63;2.58;;;;;;;;;;6184181;23;20080;-72
2023/09/22 06:54:21;;;;;;;10.80;2.88;;;;;;;;;;6184694;23;20079;-72
2023/09/22 06:56:48;;;;;;;10.38;2.15;;;;;;;;;;6184615;23;20080;-73
2023/09/22 06:59:14;;;;;;;11.05;2.83;;;;;;;;;;6182986;23;20075;-72
2023/09/22 07:01:41;;;;;;;11.80;2.67;;;;;;;;;;6183406;23;20072;-73
2023/09/22 07:04:09;;;;;;;4.75;2.20;;;;;;;;;;6184532;23;20439;-72
2023/09/22 07:06:42;;;;;;;7.55;2.17;;;;;;;;;;6184933;23;20072;-72
2023/09/22 07:09:11;;;;;;;6.60;2.03;;;;;;;;;;6183831;23;20083;-72
2023/09/22 07:11:40;;;;;;;10.32;2.40;;;;;;;;;;6184452;23;20096;-72
2023/09/22 07:14:08;;;;;;;7.15;2.05;;;;;;;;;;6184255;23;20096;-72
2023/09/22 07:16:35;;;;;;;8.27;2.47;;;;;;;;;;6184090;23;20523;-72
2023/09/22 07:19:01;;;;;;;5.15;1.90;;;;;;;;;;6184382;23;20083;-72
2023/09/22 07:21:28;;;;;;;6.07;2.25;;;;;;;;;;6184385;23;20072;-72
2023/09/22 07:23:55;;;;;;;10.85;2.17;;;;;;;;;;6184752;23;20095;-73
2023/09/22 07:26:26;;;;;;;11.93;2.10;;;;;;;;;;6184654;23;20076;-72
2023/09/22 07:28:53;;;;;;;6.55;2.17;;;;;;;;;;6183461;23;20095;-73
2023/09/22 07:31:20;;;;;;;6.72;1.95;;;;;;;;;;6183917;23;20083;-73
2023/09/22 07:33:47;;;;;;;9.20;1.90;;;;;;;;;;6184028;23;20080;-73
2023/09/22 07:36:15;;;;;;;6.20;1.70;;;;;;;;;;6182898;23;20057;-72
2023/09/22 07:38:41;;;;;;;7.22;2.25;;;;;;;;;;6182728;23;20079;-73
2023/09/22 07:41:08;;;;;;;8.48;2.13;;;;;;;;;;6182461;23;20419;-72
2023/09/22 07:43:35;;;;;;;7.45;2.20;;;;;;;;;;6183524;23;20072;-72
2023/09/22 07:46:04;;;;;;;5.97;2.08;;;;;;;;;;6183765;23;20076;-73
2023/09/22 07:48:30;;;;;;;8.43;1.98;;;;;;;;;;6182964;23;20076;-73
2023/09/22 07:50:58;;;;;;;5.57;1.70;;;;;;;;;;6183882;23;20019;-72
2023/09/22 07:53:25;;;;;;;8.63;1.92;;;;;;;;;;6183922;23;20076;-72
2023/09/22 07:55:55;;;;;;;9.90;2.00;;;;;;;;;;6184166;23;20075;-72
2023/09/22 07:58:24;;;;;;;10.25;2.15;;;;;;;;;;6183359;23;20084;-72
2023/09/22 08:00:52;;;;;;;10.50;2.40;;;;;;;;;;6183709;23;20393;-72
2023/09/22 08:03:18;;;;;;;4.78;1.95;;;;;;;;;;6183829;23;20080;-72
2023/09/22 08:05:45;;;;;;;9.95;1.80;;;;;;;;;;6184108;23;20063;-73
2023/09/22 08:08:13;;;;;;;7.88;1.92;;;;;;;;;;6182556;23;20092;-73
2023/09/22 08:10:40;;;;;;;6.45;2.10;;;;;;;;;;6182822;23;20502;-73
2023/09/22 08:13:09;;;;;;;10.25;2.25;;;;;;;;;;6183315;23;20076;-72
2023/09/22 08:15:39;;;;;;;5.00;1.92;;;;;;;;;;6183813;23;20108;-73
2023/09/22 08:18:06;;;;;;;5.27;2.00;;;;;;;;;;6183181;23;20112;-73
2023/09/22 08:20:33;;;;;;;6.60;2.00;;;;;;;;;;6183381;23;20080;-73
2023/09/22 08:23:00;;;;;;;4.13;1.70;;;;;;;;;;6183720;23;20076;-73
2023/09/22 08:25:27;;;;;;;5.60;2.10;;;;;;;;;;6183052;23;20092;-73
2023/09/22 08:27:54;;;;;;;5.25;1.90;;;;;;;;;;6182410;23;20380;-72
2023/09/22 08:30:21;;;;;;;8.43;2.20;;;;;;;;;;6182385;23;20416;-74
2023/09/22 08:32:47;;;;;;;7.45;1.90;;;;;;;;;;6183230;23;20499;-73
2023/09/22 08:35:17;;;;;;;5.53;1.80;;;;;;;;;;6183592;23;20076;-74
2023/09/22 08:37:43;;;;;;;8.13;2.20;;;;;;;;;;6183385;23;20081;-74
2023/09/22 08:40:11;;;;;;;10.65;2.05;;;;;;;;;;6183475;23;20397;-75
2023/09/22 08:42:38;;;;;;;4.53;1.48;;;;;;;;;;6182830;23;20111;-74
2023/09/22 08:45:08;;;;;;;6.97;1.75;;;;;;;;;;6182495;23;20383;-74
2023/09/22 08:47:39;;;;;;;5.38;1.77;;;;;;;;;;6156912;23;20147;-73
2023/09/22 08:50:12;;;;;;;6.30;1.98;;;;;;;;;;6182081;23;20084;-73
2023/09/22 08:52:42;;;;;;;7.10;2.00;;;;;;;;;;6182377;23;20143;-73
2023/09/22 08:55:11;;;;;;;5.30;1.48;;;;;;;;;;6183167;23;20080;-74
2023/09/22 08:57:44;;;;;;;8.05;1.80;;;;;;;;;;6182635;23;20088;-74
2023/09/22 09:00:20;;;;;;;8.32;1.85;;;;;;;;;;6182791;23;20072;-73
2023/09/22 09:02:51;;;;;;;7.07;1.95;;;;;;;;;;6182493;23;20084;-73
2023/09/22 09:05:19;;;;;;;6.85;1.65;;;;;;;;;;6183194;23;20080;-73
2023/09/22 09:07:46;;;;;;;8.75;1.80;;;;;;;;;;6156819;23;20395;-73
2023/09/22 09:10:24;;;;;;;7.53;1.98;;;;;;;;;;6182159;23;20092;-72
2023/09/22 09:12:50;;;;;;;6.55;1.70;;;;;;;;;;6182800;23;20572;-74
2023/09/22 09:15:16;;;;;;;7.60;1.90;;;;;;;;;;6182402;23;20076;-72
2023/09/22 09:17:43;;;;;;;6.18;1.70;;;;;;;;;;6181961;23;20139;-73
2023/09/22 09:20:09;;;;;;;4.55;1.33;;;;;;;;;;6182759;23;20073;-73
2023/09/22 09:22:37;;;;;;;6.60;1.67;;;;;;;;;;6156600;23;20088;-74
2023/09/22 09:25:07;;;;;;;5.72;1.67;;;;;;;;;;6183314;23;20080;-72
2023/09/22 09:27:34;;;;;;;;;;;;;;;;;;6185620;23;20380;-73
2023/09/22 09:30:06;;;;;;;3.03;1.20;;;;;;;;;;6184453;23;19904;-74
2023/09/22 09:32:33;;;;;;;4.55;1.27;;;;;;;;;;6184355;23;20092;-74
2023/09/22 09:35:00;;;;;;;3.50;1.60;;;;;;;;;;6183981;23;20068;-74
2023/09/22 09:37:26;;;;;;;2.70;1.20;;;;;;;;;;6185211;23;20084;-73
2023/09/22 09:39:55;;;;;;;3.80;1.17;;;;;;;;;;6184050;23;20126;-74
2023/09/22 09:42:23;;;;;;;4.13;1.20;;;;;;;;;;6184378;23;20495;-74
2023/09/22 09:44:51;;;;;;;5.90;1.33;;;;;;;;;;6158913;23;20363;-74
2023/09/22 09:47:24;;;;;;;5.57;1.30;;;;;;;;;;6184392;23;20096;-74
2023/09/22 09:49:54;;;;;;;4.03;1.23;;;;;;;;;;6184232;23;20563;-74
2023/09/22 09:52:28;;;;;;;4.57;1.40;;;;;;;;;;6183495;23;20076;-74
2023/09/22 09:55:20;;;;;;;3.28;1.20;;;;;;;;;;6182911;23;20075;-74
2023/09/22 09:57:47;;;;;;;4.40;1.27;;;;;;;;;;6178963;23;20551;-73
2023/09/22 10:00:21;;;;;;;4.75;1.48;;;;;;;;;;6184077;23;20072;-74
2023/09/22 10:02:48;;;;;;;4.32;1.38;;;;;;;;;;6184029;23;20139;-73
2023/09/22 10:05:16;;;;;;;2.90;1.50;;;;;;;;;;6184980;23;20064;-69
2023/09/22 10:07:46;;;;;;;6.70;1.55;;;;;;;;;;6184066;23;20383;-69
2023/09/22 10:10:13;;;;;;;2.50;0.93;;;;;;;;;;6183812;23;20139;-69
2023/09/22 10:12:40;;;;;;;5.43;1.30;;;;;;;;;;6184894;23;20096;-69
2023/09/22 10:15:07;;;;;;;5.82;1.20;;;;;;;;;;6184987;23;20383;-69
2023/09/22 10:17:33;;;;;;;7.15;1.30;;;;;;;;;;6185080;23;20084;-69
2023/09/22 10:20:10;;;;;;;6.82;1.50;;;;;;;;;;6184785;23;20081;-69
2023/09/22 10:22:37;;;;;;;3.70;1.40;;;;;;;;;;6184346;23;20072;-69
2023/09/22 10:25:12;;;;;;;6.47;1.48;;;;;;;;;;6184801;23;20092;-69
2023/09/22 10:27:51;;;;;;;3.50;1.17;;;;;;;;;;6184816;23;20072;-69
2023/09/22 10:30:17;;;;;;;4.15;1.40;;;;;;;;;;6184629;23;20083;-69
2023/09/22 10:32:45;;;;;;;4.82;1.50;;;;;;;;;;6184388;23;20100;-69
2023/09/22 10:35:14;;;;;;;5.57;1.55;;;;;;;;;;6184664;23;20422;-69
2023/09/22 10:38:04;;;;;;;4.30;1.55;;;;;;;;;;6157965;23;20092;-69
2023/09/22 10:40:31;;;;;;;5.45;1.55;;;;;;;;;;6184819;23;20084;-69
2023/09/22 10:43:01;;;;;;;3.85;1.27;;;;;;;;;;6184862;23;20396;-69
2023/09/22 10:45:29;;;;;;;4.75;1.35;;;;;;;;;;6182333;23;20088;-69
2023/09/22 10:47:57;;;;;;;5.95;1.45;;;;;;;;;;6184507;23;20072;-69
2023/09/22 10:50:31;;;;;;;4.30;1.27;;;;;;;;;;6183899;23;20020;-69
2023/09/22 10:53:03;;;;;;;4.28;1.27;;;;;;;;;;6157761;23;20076;-69
2023/09/22 10:55:36;;;;;;;5.70;1.40;;;;;;;;;;6158004;23;20413;-69
2023/09/22 10:58:08;;;;;;;3.70;1.30;;;;;;;;;;6157793;23;20409;-69
2023/09/22 11:00:36;;;;;;;3.17;1.40;;;;;;;;;;6158159;23;20076;-69
2023/09/22 11:03:06;;;;;;;2.88;1.15;;;;;;;;;;6184303;23;20072;-69
2023/09/22 11:05:34;;;;;;;4.57;1.45;;;;;;;;;;6184105;23;20076;-70
2023/09/22 11:08:01;;;;;;;3.65;1.20;;;;;;;;;;6183772;23;20083;-69
2023/09/22 11:10:28;;;;;;;2.45;1.00;;;;;;;;;;6184286;23;20072;-69
2023/09/22 11:12:54;;;;;;;8.18;1.60;;;;;;;;;;6183686;23;20088;-69
2023/09/22 11:15:21;;;;;;;2.95;1.35;;;;;;;;;;6183057;23;20068;-70
2023/09/22 11:17:48;;;;;;;3.92;1.10;;;;;;;;;;6183904;23;20119;-70
2023/09/22 11:20:18;;;;;;;2.30;1.10;;;;;;;;;;6157514;23;20088;-69
2023/09/22 11:22:48;;;;;;;3.72;1.08;;;;;;;;;;6183592;23;20068;-69
2023/09/22 11:25:15;;;;;;;3.03;1.20;;;;;;;;;;6157026;23;20539;-69
2023/09/22 11:27:45;;;;;;;7.60;1.30;;;;;;;;;;6184027;23;20500;-70
2023/09/22 11:30:14;;;;;;;4.75;1.45;;;;;;;;;;6183945;23;20407;-69
2023/09/22 11:32:41;;;;;;;2.75;1.10;;;;;;;;;;6183983;23;20087;-69
2023/09/22 11:35:07;;;;;;;2.72;1.27;;;;;;;;;;6183576;23;20076;-69
2023/09/22 11:37:34;;;;;;;2.80;0.95;;;;;;;;;;6154298;23;20096;-70
2023/09/22 11:40:00;;;;;;;4.40;1.10;;;;;;;;;;6182260;23;20085;-69
2023/09/22 11:42:26;;;;;;;4.18;1.05;;;;;;;;;;6183073;23;20079;-70
2023/09/22 11:44:59;;;;;;;7.07;1.17;;;;;;;;;;6182387;23;20064;-71
2023/09/22 11:47:26;;;;;;;2.22;1.10;;;;;;;;;;6181774;23;20436;-69
2023/09/22 11:49:52;;;;;;;2.13;1.10;;;;;;;;;;6183049;23;20064;-69
2023/09/22 11:52:29;;;;;;;3.45;1.10;;;;;;;;;;6157167;23;20080;-69
2023/09/22 11:54:55;;;;;;;5.03;1.10;;;;;;;;;;6183403;23;20563;-70
2023/09/22 11:57:21;;;;;;;3.13;1.10;;;;;;;;;;6182270;23;20076;-70
2023/09/22 11:59:48;;;;;;;1.98;0.90;;;;;;;;;;6182706;23;20077;-70
2023/09/22 12:02:15;;;;;;;2.88;1.08;;;;;;;;;;6183641;23;20087;-70
2023/09/22 12:04:42;;;;;;;2.75;1.00;;;;;;;;;;6182863;23;20456;-70
2023/09/22 12:07:08;;;;;;;2.65;1.20;;;;;;;;;;6183004;23;20503;-70
2023/09/22 12:09:34;;;;;;;1.92;0.90;;;;;;;;;;6183342;23;20072;-70
2023/09/22 12:12:01;;;;;;;2.03;0.90;;;;;;;;;;6183285;23;20100;-71
2023/09/22 12:14:27;;;;;;;2.03;0.90;;;;;;;;;;6182906;23;20068;-70
2023/09/22 12:16:54;;;;;;;3.90;0.90;;;;;;;;;;6183406;23;20092;-69
2023/09/22 12:19:20;;;;;;;3.35;1.20;;;;;;;;;;6182679;23;20080;-69
2023/09/22 12:21:46;;;;;;;2.70;0.80;;;;;;;;;;6183415;23;20084;-69
2023/09/22 12:24:13;;;;;;;2.58;1.00;;;;;;;;;;6182913;23;20084;-69
2023/09/22 12:26:40;;;;;;;5.68;1.50;;;;;;;;;;6183407;23;20088;-69
2023/09/22 12:29:07;;;;;;;3.22;1.20;;;;;;;;;;6182954;23;20397;-69
2023/09/22 12:31:33;;;;;;;3.55;0.95;;;;;;;;;;6183165;23;20088;-69
2023/09/22 12:34:00;;;;;;;4.15;1.23;;;;;;;;;;6156070;23;20080;-69
2023/09/22 12:36:26;;;;;;;2.35;1.00;;;;;;;;;;6183058;23;20080;-70
2023/09/22 12:38:53;;;;;;;1.98;1.08;;;;;;;;;;6182986;23;20068;-70
2023/09/22 12:41:19;;;;;;;2.75;1.00;;;;;;;;;;6155744;23;20435;-68
2023/09/22 12:43:46;;;;;;;2.60;1.08;;;;;;;;;;6182343;23;20083;-71
2023/09/22 12:46:13;;;;;;;3.08;1.05;;;;;;;;;;6183036;23;20084;-68
2023/09/22 12:48:42;;;;;;;2.40;1.15;;;;;;;;;;6181368;23;20076;-67
2023/09/22 12:51:11;;;;;;;1.60;0.90;;;;;;;;;;6180990;23;20159;-68
2023/09/22 12:53:37;;;;;;;1.95;1.00;;;;;;;;;;6182284;23;20069;-69
2023/09/22 12:56:05;;;;;;;2.55;1.00;;;;;;;;;;6182921;23;20076;-69
2023/09/22 12:58:33;;;;;;;2.97;1.02;;;;;;;;;;6157517;23;20083;-68
2023/09/22 13:01:03;;;;;;;1.35;1.10;;;;;;;;;;6184128;23;20080;-69
2023/09/22 13:03:29;;;;;;;1.10;0.90;;;;;;;;;;6184526;23;20076;-68
2023/09/22 13:05:57;;;;;;;1.73;0.80;;;;;;;;;;6184735;23;20088;-68
2023/09/22 13:08:25;;;;;;;4.53;0.80;;;;;;;;;;6185122;23;20084;-68
2023/09/22 13:10:51;;;;;;;1.45;0.80;;;;;;;;;;6184808;23;20084;-70
2023/09/22 13:13:17;;;;;;;2.30;0.88;;;;;;;;;;6184831;23;20076;-70
2023/09/22 13:15:44;;;;;;;4.13;0.88;;;;;;;;;;6184649;23;20509;-70
2023/09/22 13:18:11;;;;;;;1.83;0.80;;;;;;;;;;6183827;23;20072;-70
2023/09/22 13:20:38;;;;;;;1.92;0.68;;;;;;;;;;6185061;23;20076;-70
2023/09/22 13:23:04;;;;;;;6.93;1.13;;;;;;;;;;6184794;23;20511;-69
2023/09/22 13:25:36;;;;;;;3.20;1.08;;;;;;;;;;6184203;23;20092;-70
2023/09/22 13:28:04;;;;;;;1.65;1.00;;;;;;;;;;6184578;23;20133;-69
2023/09/22 13:30:31;;;;;;;1.30;0.65;;;;;;;;;;6184756;23;20013;-70
2023/09/22 13:32:57;;;;;;;1.63;0.60;;;;;;;;;;6184566;23;20064;-69
2023/09/22 13:35:23;;;;;;;0.77;0.57;;;;;;;;;;6184224;23;20076;-69
2023/09/22 13:37:51;;;;;;;0.75;0.68;;;;;;;;;;6184851;23;20080;-69
2023/09/22 13:40:18;;;;;;;1.40;0.60;;;;;;;;;;6184573;23;20124;-69
2023/09/22 13:42:44;;;;;;;2.33;0.77;;;;;;;;;;6185095;23;20068;-69
2023/09/22 13:45:11;;;;;;;1.40;0.80;;;;;;;;;;6184126;23;20088;-70
2023/09/22 13:47:37;;;;;;;1.42;0.80;;;;;;;;;;6184075;23;20072;-69
2023/09/22 13:50:04;;;;;;;1.45;0.65;;;;;;;;;;6184241;23;20532;-69
2023/09/22 13:52:30;;;;;;;3.05;0.80;;;;;;;;;;6158530;23;20080;-69
2023/09/22 13:54:57;;;;;;;2.25;0.80;;;;;;;;;;6184116;23;20098;-69
2023/09/22 13:57:25;;;;;;;2.72;0.80;;;;;;;;;;6184524;23;20083;-69
2023/09/22 13:59:54;;;;;;;1.05;0.80;;;;;;;;;;6184266;23;20488;-71
2023/09/22 14:02:20;;;;;;;2.88;0.85;;;;;;;;;;6184682;23;20476;-70
2023/09/22 14:04:47;;;;;;;1.42;0.90;;;;;;;;;;6184089;23;20080;-70
2023/09/22 14:07:13;;;;;;;2.17;0.90;;;;;;;;;;6184634;23;20076;-70
2023/09/22 14:09:39;;;;;;;2.60;0.85;;;;;;;;;;6184363;23;20495;-69
2023/09/22 14:12:06;;;;;;;1.60;0.60;;;;;;;;;;6184290;23;20017;-69
2023/09/22 14:14:32;;;;;;;2.42;0.90;;;;;;;;;;6182709;23;20079;-69
2023/09/22 14:16:59;;;;;;;1.55;0.77;;;;;;;;;;6184142;23;20080;-69
2023/09/22 14:19:26;;;;;;;3.25;0.80;;;;;;;;;;6183976;23;20551;-69
2023/09/22 14:21:52;;;;;;;3.75;0.85;;;;;;;;;;6183916;23;20495;-69
2023/09/22 14:24:18;;;;;;;4.15;1.25;;;;;;;;;;6183674;23;20063;-69
2023/09/22 14:26:45;;;;;;;8.40;1.38;;;;;;;;;;6182425;23;20080;-70
2023/09/22 14:29:11;;;;;;;4.82;1.08;;;;;;;;;;6182028;23;21049;-69
2023/09/22 14:31:38;;;;;;;3.08;0.80;;;;;;;;;;6183321;23;20021;-69
2023/09/22 14:34:04;;;;;;;4.55;1.20;;;;;;;;;;6183637;23;20072;-69
2023/09/22 14:36:31;;;;;;;2.65;1.00;;;;;;;;;;6184241;23;20072;-69
2023/09/22 14:38:58;;;;;;;4.93;1.00;;;;;;;;;;6157715;23;20080;-69
2023/09/22 14:41:24;;;;;;;3.65;1.33;;;;;;;;;;6183523;23;20089;-69
2023/09/22 14:43:51;;;;;;;6.68;1.30;;;;;;;;;;6183571;23;20047;-69
2023/09/22 14:46:17;;;;;;;4.30;1.00;;;;;;;;;;6157820;23;20134;-69